createdAt,value
2019-04-14T00:01:35.436Z,75.44
2019-04-14T00:04:16.331Z,75.17
2019-04-14T00:06:46.296Z,75.94
2019-04-14T00:09:18.639Z,74.98
2019-04-14T00:11:48.747Z,76.03
2019-04-14T00:14:18.577Z,76.03
2019-04-14T00:16:48.965Z,76.51
2019-04-14T00:19:18.131Z,76.34
2019-04-14T00:21:47.718Z,76.52
2019-04-14T00:24:16.814Z,75.51
2019-04-14T00:26:46.716Z,76.71
2019-04-14T00:29:17.295Z,76.21
2019-04-14T00:31:47.456Z,75.51
2019-04-14T00:34:35.995Z,76.19
2019-04-14T00:37:14.133Z,75.56
2019-04-14T00:39:46.832Z,75.54
2019-04-14T00:42:34.200Z,74.65
2019-04-14T00:45:33.941Z,75.72
2019-04-14T00:48:03.399Z,75.76
2019-04-14T00:50:28.019Z,75.28
2019-04-14T00:52:57.129Z,74.99
2019-04-14T00:55:27.129Z,73.91
2019-04-14T00:57:57.263Z,74.18
2019-04-14T01:00:27.537Z,73.84
2019-04-14T01:02:57.975Z,73.51
2019-04-14T01:05:28.371Z,74.03
2019-04-14T01:07:58.768Z,73.82
2019-04-14T01:10:28.255Z,73.46
2019-04-14T01:12:58.187Z,73.02
2019-04-14T01:15:27.300Z,74.18
2019-04-14T01:17:57.176Z,74.12
2019-04-14T01:20:27.432Z,74.01
2019-04-14T01:22:57.462Z,74.20
2019-04-14T01:25:28.121Z,73.77
2019-04-14T01:27:58.198Z,74.05
2019-04-14T01:30:28.328Z,74.16
2019-04-14T01:32:58.869Z,74.03
2019-04-14T01:35:29.195Z,74.22
2019-04-14T01:37:59.396Z,73.99
2019-04-14T01:40:29.875Z,74.25
2019-04-14T01:42:59.506Z,73.89
2019-04-14T01:45:29.609Z,73.46
2019-04-14T01:48:00.018Z,74.49
2019-04-14T01:50:38.845Z,74.96
2019-04-14T01:53:25.125Z,73.83
2019-04-14T01:56:01.310Z,74.04
2019-04-14T01:58:40.378Z,74.64
2019-04-14T02:01:15.361Z,74.00
2019-04-14T02:03:45.549Z,74.27
2019-04-14T02:06:15.689Z,73.96
2019-04-14T02:08:45.872Z,73.87
2019-04-14T02:11:15.846Z,73.09
2019-04-14T02:13:46.469Z,72.80
2019-04-14T02:16:25.829Z,73.20
2019-04-14T02:18:48.060Z,73.90
2019-04-14T02:21:17.978Z,73.65
2019-04-14T02:23:49.789Z,74.45
2019-04-14T02:26:22.007Z,74.77
2019-04-14T02:28:59.250Z,73.46
2019-04-14T02:31:53.645Z,72.96
2019-04-14T02:34:41.618Z,73.72
2019-04-14T02:37:04.826Z,73.57
2019-04-14T02:39:47.822Z,74.09
2019-04-14T02:42:17.479Z,73.48
2019-04-14T02:44:44.030Z,73.17
2019-04-14T02:49:51.063Z,72.97
2019-04-14T02:52:34.930Z,71.98
2019-04-14T02:55:04.246Z,71.41
2019-04-14T02:57:37.596Z,72.19
2019-04-14T03:00:13.311Z,70.97
2019-04-14T03:05:21.815Z,71.39
2019-04-14T03:07:54.058Z,71.85
2019-04-14T03:10:31.860Z,71.86
2019-04-14T03:13:20.784Z,72.26
2019-04-14T03:15:41.673Z,72.62
2019-04-14T03:24:12.798Z,74.03
2019-04-14T03:26:51.648Z,74.03
2019-04-14T03:29:29.502Z,73.49
2019-04-14T03:32:15.265Z,73.92
2019-04-14T03:39:33.467Z,75.17
2019-04-14T03:42:00.483Z,74.73
2019-04-14T03:52:03.711Z,75.11
2019-04-14T03:54:27.358Z,75.55
2019-04-14T03:56:53.669Z,75.16
2019-04-14T03:59:24.048Z,76.10
2019-04-14T04:01:54.474Z,76.28
2019-04-14T04:04:24.831Z,76.28
2019-04-14T04:06:55.412Z,76.22
2019-04-14T04:09:32.105Z,76.67
2019-04-14T04:12:03.140Z,76.67
2019-04-14T04:14:33.373Z,76.06
2019-04-14T04:17:21.505Z,76.06
2019-04-14T04:19:55.733Z,75.77
2019-04-14T04:22:47.660Z,76.50
2019-04-14T04:25:31.224Z,76.50
2019-04-14T04:28:12.414Z,77.12
2019-04-14T04:30:47.015Z,77.12
2019-04-14T04:33:37.889Z,78.30
2019-04-14T04:36:15.983Z,77.54
2019-04-14T04:39:06.432Z,77.99
2019-04-14T04:41:36.439Z,77.97
2019-04-14T04:44:09.319Z,77.97
2019-04-14T04:46:39.457Z,76.59
2019-04-14T04:49:15.101Z,75.83
2019-04-14T04:51:40.035Z,75.63
2019-04-14T04:54:10.227Z,74.76
2019-04-14T04:56:40.533Z,75.07
2019-04-14T04:59:09.850Z,75.76
2019-04-14T05:01:38.941Z,75.37
2019-04-14T05:04:09.044Z,74.66
2019-04-14T05:06:57.177Z,74.27
2019-04-14T05:09:44.835Z,74.09
2019-04-14T05:12:29.118Z,75.31
2019-04-14T05:15:33.346Z,75.31
2019-04-14T05:18:04.849Z,74.99
2019-04-14T05:20:35.523Z,74.73
2019-04-14T05:23:05.892Z,74.43
2019-04-14T05:25:36.667Z,74.43
2019-04-14T05:28:06.931Z,74.08
2019-04-14T05:30:37.114Z,73.71
2019-04-14T05:33:07.468Z,73.84
2019-04-14T05:35:40.108Z,73.83
2019-04-14T05:38:10.517Z,74.73
2019-04-14T05:40:40.822Z,74.45
2019-04-14T05:43:11.099Z,73.50
2019-04-14T05:45:41.601Z,73.03
2019-04-14T05:48:11.816Z,72.25
2019-04-14T05:50:42.165Z,72.03
2019-04-14T05:53:11.317Z,73.68
2019-04-14T05:55:41.624Z,71.95
2019-04-14T05:58:12.094Z,72.16
2019-04-14T06:00:44.596Z,72.67
2019-04-14T06:03:14.568Z,72.18
2019-04-14T06:05:44.934Z,71.52
2019-04-14T06:08:14.112Z,71.04
2019-04-14T06:10:43.624Z,72.42
2019-04-14T06:13:12.796Z,73.53
2019-04-14T06:15:41.928Z,72.01
2019-04-14T06:18:12.336Z,71.16
2019-04-14T06:20:41.490Z,70.80
2019-04-14T06:23:10.623Z,70.68
2019-04-14T06:25:40.078Z,69.97
2019-04-14T06:28:09.181Z,69.83
2019-04-14T06:31:00.243Z,69.34
2019-04-14T06:33:44.704Z,69.47
2019-04-14T06:36:28.517Z,68.92
2019-04-14T06:39:06.964Z,68.49
2019-04-14T06:41:36.238Z,68.81
2019-04-14T06:44:09.141Z,69.23
2019-04-14T06:46:38.325Z,68.73
2019-04-14T06:49:07.477Z,68.52
2019-04-14T06:51:36.914Z,68.34
2019-04-14T06:54:06.113Z,68.36
2019-04-14T06:56:35.738Z,67.32
2019-04-14T06:59:07.421Z,68.54
2019-04-14T07:01:38.908Z,68.75
2019-04-14T07:04:09.421Z,68.63
2019-04-14T07:06:38.953Z,69.93
2019-04-14T07:09:08.536Z,69.21
2019-04-14T07:11:38.656Z,68.74
2019-04-14T07:14:08.123Z,67.89
2019-04-14T07:16:37.350Z,67.31
2019-04-14T07:19:08.164Z,67.77
2019-04-14T07:21:38.927Z,67.64
2019-04-14T07:24:11.060Z,66.34
2019-04-14T07:26:41.117Z,66.05
2019-04-14T07:29:11.507Z,65.81
2019-04-14T07:32:02.405Z,66.00
2019-04-14T07:34:47.818Z,65.15
2019-04-14T07:37:54.152Z,63.80
2019-04-14T07:40:48.817Z,63.24
2019-04-14T07:43:38.591Z,61.93
2019-04-14T07:46:24.306Z,62.29
2019-04-14T07:49:21.951Z,60.79
2019-04-14T07:52:08.920Z,61.14
2019-04-14T07:54:43.296Z,59.63
2019-04-14T07:57:26.053Z,57.64
2019-04-14T08:00:08.296Z,58.05
2019-04-14T08:02:54.599Z,57.83
2019-04-14T08:05:30.390Z,57.63
2019-04-14T08:07:59.956Z,59.79
2019-04-14T08:10:29.208Z,57.64
2019-04-14T08:12:58.445Z,58.02
2019-04-14T08:15:27.571Z,59.04
2019-04-14T08:17:56.801Z,59.12
2019-04-14T08:20:28.212Z,58.57
2019-04-14T08:22:57.976Z,59.41
2019-04-14T08:25:27.177Z,58.62
2019-04-14T08:28:08.939Z,59.09
2019-04-14T08:30:32.483Z,59.33
2019-04-14T08:33:01.651Z,57.42
2019-04-14T08:35:31.950Z,56.59
2019-04-14T08:38:03.261Z,57.16
2019-04-14T08:40:32.391Z,56.56
2019-04-14T08:43:19.091Z,57.13
2019-04-14T08:45:55.993Z,56.12
2019-04-14T08:48:47.437Z,55.28
2019-04-14T08:51:35.813Z,55.16
2019-04-14T08:54:28.146Z,55.47
2019-04-14T08:57:25.825Z,53.66
2019-04-14T09:00:25.743Z,54.58
2019-04-14T09:03:24.427Z,52.00
2019-04-14T09:06:14.587Z,50.64
2019-04-14T09:09:18.531Z,49.00
2019-04-14T09:11:51.646Z,51.87
2019-04-14T09:14:23.003Z,50.53
2019-04-14T09:16:52.245Z,49.42
2019-04-14T09:19:21.798Z,49.40
2019-04-14T09:21:53.330Z,48.81
2019-04-14T09:24:24.147Z,48.11
2019-04-14T09:26:53.514Z,48.80
2019-04-14T09:29:23.876Z,49.54
2019-04-14T09:31:53.509Z,48.66
2019-04-14T09:34:23.268Z,46.94
2019-04-14T09:36:53.210Z,47.19
2019-04-14T09:39:25.962Z,46.64
2019-04-14T09:41:57.290Z,46.34
2019-04-14T09:44:26.423Z,45.37
2019-04-14T09:46:57.981Z,45.32
2019-04-14T09:49:27.929Z,45.18
2019-04-14T09:51:59.339Z,45.24
2019-04-14T09:54:29.839Z,45.05
2019-04-14T09:57:09.176Z,44.16
2019-04-14T09:59:38.658Z,44.86
2019-04-14T10:02:07.824Z,43.91
2019-04-14T10:04:37.011Z,43.03
2019-04-14T10:07:06.495Z,44.15
2019-04-14T10:09:35.931Z,43.68
2019-04-14T10:12:08.085Z,43.17
2019-04-14T10:14:37.211Z,42.75
2019-04-14T10:17:06.364Z,42.94
2019-04-14T10:19:35.590Z,42.47
2019-04-14T10:22:12.189Z,42.80
2019-04-14T10:24:42.483Z,41.81
2019-04-14T10:27:11.970Z,41.38
2019-04-14T10:29:41.507Z,41.14
2019-04-14T10:32:11.026Z,39.73
2019-04-14T10:34:45.851Z,39.67
2019-04-14T10:37:15.108Z,40.38
2019-04-14T10:39:44.727Z,40.74
2019-04-14T10:42:14.207Z,39.30
2019-04-14T10:44:43.452Z,40.12
2019-04-14T10:47:12.701Z,39.70
2019-04-14T10:49:42.280Z,39.78
2019-04-14T10:52:11.459Z,38.29
2019-04-14T10:54:40.673Z,37.68
2019-04-14T10:57:10.104Z,37.77
2019-04-14T10:59:39.281Z,37.37
2019-04-14T11:02:08.399Z,37.04
2019-04-14T11:04:37.630Z,36.90
2019-04-14T11:07:14.394Z,35.76
2019-04-14T11:09:43.861Z,35.44
2019-04-14T11:12:13.011Z,34.40
2019-04-14T11:14:42.315Z,34.25
2019-04-14T11:17:11.727Z,33.47
2019-04-14T11:19:40.960Z,32.63
2019-04-14T11:22:10.539Z,32.50
2019-04-14T11:24:39.966Z,33.54
2019-04-14T11:27:09.198Z,33.03
2019-04-14T11:29:38.360Z,31.42
2019-04-14T11:32:29.714Z,31.42
2019-04-14T11:35:08.955Z,31.11
2019-04-14T11:38:03.586Z,30.22
2019-04-14T11:40:36.922Z,29.71
2019-04-14T11:43:06.431Z,28.86
2019-04-14T11:45:35.569Z,27.72
2019-04-14T11:48:06.863Z,27.35
2019-04-14T11:50:36.573Z,27.44
2019-04-14T11:53:05.859Z,26.78
2019-04-14T11:55:35.081Z,26.34
2019-04-14T11:58:05.526Z,26.40
2019-04-14T12:01:05.751Z,26.41
2019-04-14T12:03:41.714Z,25.41
2019-04-14T12:06:26.174Z,25.14
2019-04-14T12:09:02.161Z,24.48
2019-04-14T12:11:31.302Z,24.56
2019-04-14T12:14:00.471Z,24.09
2019-04-14T12:16:29.617Z,23.80
2019-04-14T12:18:58.797Z,23.95
2019-04-14T12:21:28.295Z,25.10
2019-04-14T12:23:57.423Z,24.63
2019-04-14T12:26:26.972Z,23.85
2019-04-14T12:29:00.128Z,24.29
2019-04-14T12:31:28.748Z,25.19
2019-04-14T12:33:58.241Z,25.23
2019-04-14T12:36:27.856Z,25.58
2019-04-14T12:38:56.969Z,25.66
2019-04-14T12:41:33.216Z,24.99
2019-04-14T12:44:30.504Z,24.90
2019-04-14T12:47:36.583Z,25.01
2019-04-14T12:50:04.800Z,24.97
2019-04-14T12:52:33.939Z,25.68
2019-04-14T12:55:03.412Z,25.51
2019-04-14T12:57:51.781Z,25.48
2019-04-14T13:00:26.806Z,25.79
2019-04-14T13:02:56.248Z,25.30
2019-04-14T13:05:25.360Z,24.53
2019-04-14T13:07:54.516Z,24.04
2019-04-14T13:10:23.926Z,23.32
2019-04-14T13:12:53.063Z,22.53
2019-04-14T13:15:22.232Z,22.37
2019-04-14T13:17:51.673Z,22.50
2019-04-14T13:20:20.781Z,24.12
2019-04-14T13:22:49.917Z,23.57
2019-04-14T13:25:19.479Z,23.27
2019-04-14T13:27:50.174Z,25.05
2019-04-14T13:30:23.685Z,25.55
2019-04-14T13:32:54.727Z,25.60
2019-04-14T13:35:23.971Z,25.63
2019-04-14T13:37:53.214Z,24.79
2019-04-14T13:40:22.628Z,24.27
2019-04-14T13:42:51.870Z,22.83
2019-04-14T13:45:21.008Z,21.67
2019-04-14T13:47:50.467Z,20.37
2019-04-14T13:50:19.662Z,21.01
2019-04-14T13:52:48.938Z,21.46
2019-04-14T13:55:18.543Z,22.38
2019-04-14T13:57:47.858Z,23.44
2019-04-14T14:00:17.872Z,24.06
2019-04-14T14:02:47.782Z,23.52
2019-04-14T14:05:17.287Z,24.07
2019-04-14T14:07:46.984Z,24.48
2019-04-14T14:10:17.039Z,24.29
2019-04-14T14:13:17.520Z,24.60
2019-04-14T14:16:04.483Z,24.72
2019-04-14T14:18:41.247Z,25.00
2019-04-14T14:21:27.029Z,25.21
2019-04-14T14:24:16.565Z,25.02
2019-04-14T14:26:47.552Z,25.32
2019-04-14T14:29:17.265Z,26.65
2019-04-14T14:31:47.848Z,26.99
2019-04-14T14:34:17.991Z,27.26
2019-04-14T14:36:47.812Z,27.30
2019-04-14T14:39:19.793Z,27.06
2019-04-14T14:41:49.190Z,27.07
2019-04-14T14:44:19.494Z,26.40
2019-04-14T14:47:11.755Z,26.63
2019-04-14T14:49:58.784Z,26.88
2019-04-14T14:52:28.036Z,27.23
2019-04-14T14:54:58.073Z,27.43
2019-04-14T14:57:27.421Z,28.16
2019-04-14T14:59:59.184Z,27.47
2019-04-14T15:02:28.879Z,27.65
2019-04-14T15:04:58.970Z,28.03
2019-04-14T15:07:28.375Z,27.47
2019-04-14T15:09:58.387Z,27.26
2019-04-14T15:12:27.654Z,27.44
2019-04-14T15:14:56.993Z,27.92
2019-04-14T15:17:27.147Z,27.38
2019-04-14T15:19:56.887Z,27.45
2019-04-14T15:22:26.086Z,27.22
2019-04-14T15:24:55.577Z,26.82
2019-04-14T15:27:24.750Z,27.27
2019-04-14T15:29:53.918Z,26.72
2019-04-14T15:32:23.364Z,25.52
2019-04-14T15:34:53.349Z,25.86
2019-04-14T15:37:22.652Z,26.26
2019-04-14T15:39:52.369Z,26.03
2019-04-14T15:42:23.363Z,26.27
2019-04-14T15:44:52.636Z,26.23
2019-04-14T15:47:22.774Z,26.62
2019-04-14T15:49:51.923Z,25.42
2019-04-14T15:52:22.206Z,23.94
2019-04-14T15:54:53.096Z,22.46
2019-04-14T15:57:56.602Z,22.78
2019-04-14T16:00:46.111Z,22.90
2019-04-14T16:03:33.565Z,24.56
2019-04-14T16:06:28.849Z,24.63
2019-04-14T16:09:15.583Z,24.71
2019-04-14T16:11:52.226Z,25.49
2019-04-14T16:14:59.106Z,26.73
2019-04-14T16:18:06.063Z,25.84
2019-04-14T16:20:37.529Z,26.09
2019-04-14T16:23:07.341Z,26.32
2019-04-14T16:25:45.791Z,25.93
2019-04-14T16:28:22.944Z,25.78
2019-04-14T16:31:11.623Z,26.39
2019-04-14T16:33:58.229Z,27.37
2019-04-14T16:36:30.341Z,27.60
2019-04-14T16:39:01.692Z,28.15
2019-04-14T16:41:31.101Z,29.44
2019-04-14T16:44:04.836Z,29.46
2019-04-14T16:46:35.034Z,30.07
2019-04-14T16:49:04.406Z,31.33
2019-04-14T16:51:39.152Z,30.71
2019-04-14T16:54:42.708Z,30.21
2019-04-14T16:57:46.059Z,31.39
2019-04-14T17:00:22.718Z,32.09
2019-04-14T17:02:52.456Z,31.59
2019-04-14T17:05:21.912Z,32.99
2019-04-14T17:07:53.570Z,33.42
2019-04-14T17:10:22.475Z,34.19
2019-04-14T17:12:51.849Z,34.67
2019-04-14T17:15:55.588Z,34.97
2019-04-14T17:18:35.332Z,35.80
2019-04-14T17:21:19.467Z,35.42
2019-04-14T17:23:58.115Z,35.95
2019-04-14T17:26:38.139Z,36.52
2019-04-14T17:29:16.799Z,37.45
2019-04-14T17:32:06.952Z,37.89
2019-04-14T17:34:55.774Z,38.92
2019-04-14T17:37:44.200Z,38.61
2019-04-14T17:40:56.710Z,39.42
2019-04-14T17:43:39.305Z,40.59
2019-04-14T17:46:24.833Z,41.45
2019-04-14T17:49:22.172Z,42.13
2019-04-14T17:52:10.465Z,42.72
2019-04-14T17:55:08.074Z,42.50
2019-04-14T17:58:15.848Z,42.82
2019-04-14T18:01:03.020Z,43.12
2019-04-14T18:03:51.688Z,43.62
2019-04-14T18:06:35.360Z,43.42
2019-04-14T18:09:29.499Z,43.95
2019-04-14T18:12:33.137Z,44.56
2019-04-14T18:15:21.959Z,44.73
2019-04-14T18:18:10.358Z,45.57
2019-04-14T18:20:46.296Z,45.66
2019-04-14T18:23:15.705Z,44.97
2019-04-14T18:25:45.312Z,45.56
2019-04-14T18:28:32.279Z,45.74
2019-04-14T18:31:26.635Z,45.83
2019-04-14T18:34:29.927Z,46.07
2019-04-14T18:37:27.248Z,46.19
2019-04-14T18:40:14.858Z,46.41
2019-04-14T18:42:54.068Z,46.11
2019-04-14T18:45:31.595Z,45.77
2019-04-14T18:48:25.925Z,45.84
2019-04-14T18:51:17.282Z,45.98
2019-04-14T18:54:08.592Z,45.98
2019-04-14T18:56:55.249Z,45.94
2019-04-14T18:59:43.942Z,46.14
2019-04-14T19:02:14.575Z,45.92
2019-04-14T19:04:44.410Z,46.02
2019-04-14T19:07:13.802Z,46.92
2019-04-14T19:09:43.213Z,47.09
2019-04-14T19:12:30.432Z,46.52
2019-04-14T19:15:18.648Z,46.70
2019-04-14T19:17:56.758Z,47.00
2019-04-14T19:20:26.298Z,47.50
2019-04-14T19:22:55.809Z,47.04
2019-04-14T19:25:25.590Z,46.95
2019-04-14T19:27:55.034Z,47.34
2019-04-14T19:30:24.518Z,47.59
2019-04-14T19:32:56.981Z,47.08
2019-04-14T19:35:26.965Z,47.46
2019-04-14T19:37:56.380Z,47.35
2019-04-14T19:40:25.894Z,47.32
2019-04-14T19:42:56.067Z,47.72
2019-04-14T19:45:25.256Z,47.45
2019-04-14T19:47:54.813Z,47.59
2019-04-14T19:50:24.047Z,46.99
2019-04-14T19:52:53.600Z,47.61
2019-04-14T19:55:23.357Z,47.44
2019-04-14T19:57:53.246Z,47.12
2019-04-14T20:00:22.530Z,47.02
2019-04-14T20:02:52.220Z,48.02
2019-04-14T20:05:21.392Z,47.77
2019-04-14T20:07:50.552Z,47.72
2019-04-14T20:10:19.846Z,47.32
2019-04-14T20:12:49.028Z,46.98
2019-04-14T20:15:24.568Z,47.78
2019-04-14T20:18:10.594Z,47.81
2019-04-14T20:21:04.706Z,48.67
2019-04-14T20:23:42.666Z,48.55
2019-04-14T20:26:46.315Z,48.52
2019-04-14T20:29:18.588Z,47.96
2019-04-14T20:32:05.343Z,48.56
2019-04-14T20:34:34.864Z,49.02
2019-04-14T20:37:04.657Z,48.98
2019-04-14T20:39:33.776Z,49.02
2019-04-14T20:42:04.369Z,48.65
2019-04-14T20:44:34.739Z,48.35
2019-04-14T20:47:06.889Z,48.50
2019-04-14T20:49:36.118Z,48.77
2019-04-14T20:52:06.540Z,48.33
2019-04-14T20:54:35.660Z,48.25
2019-04-14T20:57:04.968Z,48.21
2019-04-14T20:59:34.536Z,48.22
2019-04-14T21:02:19.487Z,48.15
2019-04-14T21:05:10.416Z,48.30
2019-04-14T21:08:07.657Z,50.13
2019-04-14T21:10:44.909Z,50.50
2019-04-14T21:13:30.148Z,50.21
2019-04-14T21:16:18.613Z,50.95
2019-04-14T21:18:50.334Z,51.39
2019-04-14T21:21:45.526Z,51.22
2019-04-14T21:24:31.527Z,52.12
2019-04-14T21:27:25.771Z,51.81
2019-04-14T21:30:18.194Z,51.73
2019-04-14T21:33:00.394Z,52.00
2019-04-14T21:35:42.206Z,51.45
2019-04-14T21:38:36.348Z,52.31
2019-04-14T21:41:11.099Z,53.15
2019-04-14T21:43:40.715Z,51.97
2019-04-14T21:46:10.735Z,52.54
2019-04-14T21:48:39.925Z,52.15
2019-04-14T21:51:10.113Z,52.65
2019-04-14T21:53:39.348Z,52.97
2019-04-14T21:56:13.709Z,52.79
2019-04-14T21:59:01.841Z,52.17
2019-04-14T22:01:53.035Z,52.21
2019-04-14T22:04:42.915Z,51.95
2019-04-14T22:07:37.443Z,53.67
2019-04-14T22:10:26.167Z,53.58
2019-04-14T22:15:22.064Z,54.60
2019-04-14T22:17:53.463Z,54.69
2019-04-14T22:20:22.874Z,55.30
2019-04-14T22:22:53.205Z,55.09
2019-04-14T22:25:24.609Z,55.15
2019-04-14T22:27:54.104Z,55.08
2019-04-14T22:30:23.237Z,55.26
2019-04-14T22:32:52.340Z,55.82
2019-04-14T22:35:21.773Z,55.81
2019-04-14T22:37:50.894Z,55.92
2019-04-14T22:40:19.996Z,55.97
2019-04-14T22:42:49.631Z,55.67
2019-04-14T22:45:19.157Z,55.54
2019-04-14T22:47:48.373Z,54.68
2019-04-14T22:50:19.626Z,54.18
2019-04-14T22:52:48.867Z,54.71
2019-04-14T22:55:18.015Z,54.38
2019-04-14T22:57:48.750Z,54.73
2019-04-14T23:00:40.437Z,54.44
2019-04-14T23:03:39.088Z,54.18
2019-04-14T23:06:29.985Z,54.74
2019-04-14T23:09:05.775Z,54.87
2019-04-14T23:11:46.144Z,54.26
2019-04-14T23:14:43.613Z,53.91
2019-04-14T23:17:38.496Z,53.88
2019-04-14T23:20:36.370Z,53.76
2019-04-14T23:23:23.215Z,53.85
2019-04-14T23:25:52.704Z,54.77
2019-04-14T23:28:21.869Z,54.49
2019-04-14T23:30:51.030Z,54.43
2019-04-14T23:33:20.565Z,54.41
2019-04-14T23:35:49.643Z,54.38
2019-04-14T23:38:18.879Z,54.38
2019-04-14T23:40:48.347Z,54.69
2019-04-14T23:43:17.554Z,55.27
2019-04-14T23:45:46.883Z,55.58
2019-04-14T23:48:16.473Z,55.31
2019-04-14T23:50:45.710Z,55.32
2019-04-14T23:53:14.984Z,54.88
2019-04-14T23:55:44.752Z,55.19
2019-04-14T23:58:13.997Z,56.18
